Time;durP1;ratioP1;P1;durP2;ratioP2;P2;SDS_P1;SDS_P2;PMS_P1;PMS_P2;Temp;Humidity;BMP_temperature;BMP_pressure;BME280_temperature;BME280_humidity;BME280_pressure;Samples;Min_cycle;Max_cycle;Signal;HPM_P1;HPM_P2
2022/06/14 00:01:44;;;;;;;6.10;4.00;;;;;;;19.28;100.00;100174.75;5027661;28;20041;-65
2022/06/14 00:04:10;;;;;;;6.78;4.55;;;;;;;19.51;100.00;100211.31;5027682;28;20025;-67
2022/06/14 00:06:35;;;;;;;7.47;4.22;;;;;;;19.54;100.00;100204.34;5027751;28;20045;-65
2022/06/14 00:09:02;;;;;;;6.35;4.65;;;;;;;19.55;100.00;100202.56;5027712;28;20151;-65
2022/06/14 00:11:38;;;;;;;6.00;4.10;;;;;;;19.52;100.00;100198.22;5027666;28;20037;-68
2022/06/14 00:14:09;;;;;;;5.32;4.05;;;;;;;19.55;100.00;100207.81;5027982;28;20030;-65
2022/06/14 00:16:36;;;;;;;6.85;4.45;;;;;;;19.24;100.00;100200.09;5027704;28;20107;-70
2022/06/14 00:19:04;;;;;;;7.30;4.47;;;;;;;18.84;100.00;100194.91;5027667;28;20573;-65
2022/06/14 00:21:31;;;;;;;9.13;4.40;;;;;;;18.80;100.00;100191.41;5027542;28;20040;-65
2022/06/14 00:23:56;;;;;;;6.45;4.07;;;;;;;18.95;100.00;100181.84;5027495;28;20029;-69
2022/06/14 00:26:22;;;;;;;5.75;4.70;;;;;;;19.03;100.00;100194.03;5027305;28;20462;-66
2022/06/14 00:28:48;;;;;;;9.00;4.10;;;;;;;19.01;100.00;100197.53;5029567;28;20046;-66
2022/06/14 00:34:36;;;;;;;7.13;4.07;;;;;;;18.92;100.00;100143.47;5206841;23;20057;-68
2022/06/14 00:37:03;;;;;;;6.72;4.47;;;;;;;19.12;100.00;100187.91;5011079;28;20166;-68
2022/06/14 00:39:29;;;;;;;9.25;4.57;;;;;;;19.08;100.00;100188.78;5009223;28;20110;-68
2022/06/14 00:41:56;;;;;;;5.25;4.35;;;;;;;19.00;100.00;100164.38;5002516;28;20439;-67
2022/06/14 00:44:26;;;;;;;8.30;4.40;;;;;;;19.28;99.71;100196.59;5004351;28;20129;-69
2022/06/14 00:46:55;;;;;;;8.50;4.43;;;;;;;19.31;97.94;100193.06;4990791;28;20496;-68
2022/06/14 00:49:27;;;;;;;5.15;3.78;;;;;;;19.40;97.63;100193.03;4991008;28;20401;-68
2022/06/14 00:52:05;;;;;;;6.00;4.10;;;;;;;19.28;97.96;100156.44;4991107;28;20409;-68
2022/06/14 00:54:39;;;;;;;7.47;3.85;;;;;;;19.60;98.53;100199.94;4990969;28;20026;-68
2022/06/14 00:57:25;;;;;;;6.63;4.20;;;;;;;19.66;97.44;100195.53;4986091;28;20088;-68
2022/06/14 01:00:01;;;;;;;5.30;3.97;;;;;;;19.70;96.27;100178.06;5002261;28;20026;-68
2022/06/14 01:02:30;;;;;;;6.28;4.25;;;;;;;19.78;95.25;100194.63;4993952;28;20022;-68
2022/06/14 01:04:59;;;;;;;7.60;6.55;;;;;;;19.21;95.38;100161.69;4995069;28;20030;-68
2022/06/14 01:07:30;;;;;;;6.60;5.95;;;;;;;18.90;98.24;100166.13;4994870;28;20049;-68
2022/06/14 01:10:07;;;;;;;5.68;4.68;;;;;;;19.16;98.71;100191.38;4994767;28;20500;-68
2022/06/14 01:12:36;;;;;;;7.78;4.80;;;;;;;19.32;99.24;100190.44;4976615;28;20464;-68
2022/06/14 01:15:08;;;;;;;6.57;4.18;;;;;;;19.23;98.48;100187.88;4988898;28;20038;-68
2022/06/14 01:17:41;;;;;;;5.25;4.20;;;;;;;18.64;100.00;100187.06;4994753;28;20042;-67
2022/06/14 01:20:08;;;;;;;5.57;4.25;;;;;;;18.44;100.00;100185.31;4994420;28;20129;-68
2022/06/14 01:22:33;;;;;;;6.70;5.00;;;;;;;18.55;100.00;100186.19;4994464;28;20029;-68
2022/06/14 01:25:00;;;;;;;8.00;4.72;;;;;;;18.48;100.00;100186.19;4994447;28;20035;-68
2022/06/14 01:27:27;;;;;;;9.90;5.18;;;;;;;18.44;100.00;100180.09;4994381;28;20026;-68
2022/06/14 01:30:02;;;;;;;6.38;4.82;;;;;;;18.54;100.00;100173.13;4994675;28;20056;-68
2022/06/14 01:32:32;;;;;;;9.15;4.88;;;;;;;18.71;100.00;100187.06;4994538;28;20037;-68
2022/06/14 01:35:01;;;;;;;6.60;4.65;;;;;;;18.76;100.00;100187.06;4994035;28;20073;-68
2022/06/14 01:37:27;;;;;;;6.95;4.72;;;;;;;18.88;100.00;100181.81;4998170;28;20070;-68
2022/06/14 01:39:55;;;;;;;7.10;4.97;;;;;;;19.04;100.00;100189.66;4999968;28;20061;-68
2022/06/14 01:42:39;;;;;;;6.78;4.57;;;;;;;19.12;100.00;100181.81;4993927;28;20045;-68
2022/06/14 01:45:39;;;;;;;6.40;4.75;;;;;;;19.17;99.90;100183.53;4997944;28;20033;-69
2022/06/14 01:48:37;;;;;;;8.00;5.13;;;;;;;19.07;100.00;100168.72;5010496;28;20038;-67
2022/06/14 01:51:51;;;;;;;7.10;4.82;;;;;;;19.18;100.00;100200.09;4914019;29;20044;-68
2022/06/14 01:54:31;;;;;;;6.53;5.30;;;;;;;18.96;100.00;100199.28;4914279;29;20047;-68
2022/06/14 01:57:13;;;;;;;8.00;5.35;;;;;;;19.04;100.00;100192.28;4914547;29;20044;-66
2022/06/14 02:00:07;;;;;;;5.93;4.70;;;;;;;19.12;100.00;100202.75;4914316;29;20032;-65
2022/06/14 02:02:51;;;;;;;6.60;4.88;;;;;;;19.09;100.00;100193.16;4803217;29;20039;-65
2022/06/14 02:05:29;;;;;;;9.13;5.18;;;;;;;19.06;100.00;100194.00;4803384;29;20042;-68
2022/06/14 02:07:54;;;;;;;8.48;5.45;;;;;;;19.03;100.00;100196.66;4802726;29;20058;-71
2022/06/14 02:10:36;;;;;;;9.00;5.35;;;;;;;19.12;100.00;100207.97;4802780;29;20107;-68
2022/06/14 02:13:20;;;;;;;8.23;5.75;;;;;;;19.01;100.00;100185.31;4802352;29;20062;-68
2022/06/14 02:16:13;;;;;;;6.57;5.30;;;;;;;19.19;100.00;100202.72;4802073;29;20543;-69
2022/06/14 02:19:06;;;;;;;7.22;5.30;;;;;;;19.22;100.00;100205.31;4773403;30;20081;-65
2022/06/14 02:21:43;;;;;;;8.50;5.30;;;;;;;19.23;100.00;100207.06;4731472;30;20070;-68
2022/06/14 02:24:28;;;;;;;8.75;5.60;;;;;;;19.13;100.00;100210.56;4731263;30;20072;-67
2022/06/14 02:27:01;;;;;;;6.82;5.40;;;;;;;18.88;100.00;100205.34;4726858;29;20045;-68
2022/06/14 02:29:47;;;;;;;6.40;5.05;;;;;;;18.79;100.00;100194.94;4802250;29;20656;-68
2022/06/14 02:32:23;;;;;;;7.75;5.32;;;;;;;18.37;100.00;100149.63;4788657;29;20050;-64
2022/06/14 02:34:54;;;;;;;8.55;5.38;;;;;;;18.79;100.00;100208.00;4801289;29;20130;-64
2022/06/14 02:37:51;;;;;;;7.75;5.38;;;;;;;18.76;100.00;100202.75;4802050;29;20079;-67
2022/06/14 02:40:38;;;;;;;7.00;5.03;;;;;;;18.79;100.00;100210.63;4821031;29;20115;-67
2022/06/14 02:43:13;;;;;;;10.23;6.13;;;;;;;18.79;100.00;100209.72;4831741;29;20066;-67
2022/06/14 02:45:57;;;;;;;7.78;4.82;;;;;;;18.42;100.00;100208.88;4821506;29;20525;-65
2022/06/14 02:48:29;;;;;;;7.90;5.68;;;;;;;18.08;100.00;100205.34;4832942;29;20038;-67
2022/06/14 02:51:12;;;;;;;7.93;5.53;;;;;;;18.06;100.00;100215.78;4820101;29;20057;-67
2022/06/14 02:54:00;;;;;;;7.20;5.47;;;;;;;18.07;100.00;100201.00;4832949;29;20112;-68
2022/06/14 02:56:40;;;;;;;7.53;4.97;;;;;;;18.10;100.00;100201.00;4859762;29;20041;-64
2022/06/14 02:59:23;;;;;;;9.70;5.70;;;;;;;18.04;100.00;100198.38;4928713;29;20118;-67
2022/06/14 03:02:01;;;;;;;8.52;5.43;;;;;;;18.16;100.00;100211.44;4931930;29;20111;-63
2022/06/14 03:05:13;;;;;;;7.22;5.15;;;;;;;18.25;100.00;100216.69;4932834;29;20039;-65
2022/06/14 03:07:49;;;;;;;8.02;5.28;;;;;;;18.29;100.00;100211.47;4906669;29;20040;-67
2022/06/14 03:10:15;;;;;;;7.50;5.57;;;;;;;18.13;100.00;100216.69;4912512;29;20140;-64
2022/06/14 03:12:58;;;;;;;8.00;5.43;;;;;;;18.13;100.00;100216.69;4912539;29;20431;-65
2022/06/14 03:16:01;;;;;;;9.90;5.90;;;;;;;18.20;100.00;100218.41;4900806;29;20042;-68
2022/06/14 03:19:17;;;;;;;12.23;5.93;;;;;;;18.22;100.00;100210.59;4950303;29;20039;-68
2022/06/14 03:22:10;;;;;;;10.80;5.80;;;;;;;17.92;100.00;100220.94;4893277;29;20123;-68
2022/06/14 03:24:44;;;;;;;9.07;6.20;;;;;;;17.98;100.00;100227.97;4837556;29;20042;-68
2022/06/14 03:27:13;;;;;;;12.40;6.03;;;;;;;17.94;100.00;100211.41;4837784;29;20506;-65
2022/06/14 03:29:39;;;;;;;;;;;;;;;18.05;100.00;100229.72;4837919;29;20561;-65
2022/06/14 03:32:18;;;;;;;10.43;6.57;;;;;;;18.18;100.00;100225.41;4837366;29;20016;-64
2022/06/14 03:34:49;;;;;;;9.25;6.63;;;;;;;18.17;100.00;100221.03;4837238;29;20143;-69
2022/06/14 03:37:14;;;;;;;10.25;7.03;;;;;;;18.25;100.00;100236.72;4837504;29;20489;-68
2022/06/14 03:39:44;;;;;;;12.93;7.15;;;;;;;18.31;100.00;100220.19;4837592;29;20038;-67
2022/06/14 03:42:11;;;;;;;9.63;7.22;;;;;;;18.35;100.00;100227.16;4837107;29;20038;-67
2022/06/14 03:44:38;;;;;;;10.90;7.95;;;;;;;18.41;100.00;100221.94;4870672;29;20473;-69
2022/06/14 03:47:09;;;;;;;14.10;8.75;;;;;;;18.45;100.00;100230.66;4883073;29;20081;-65
2022/06/14 03:49:36;;;;;;;13.48;9.07;;;;;;;18.46;100.00;100228.03;4892933;29;20054;-64
2022/06/14 03:52:10;;;;;;;13.45;10.05;;;;;;;18.49;100.00;100232.41;4877281;29;20048;-67
2022/06/14 03:55:03;;;;;;;14.20;9.45;;;;;;;18.45;100.00;100228.91;4892727;29;20100;-70
2022/06/14 03:57:40;;;;;;;10.77;9.27;;;;;;;18.51;100.00;100226.28;4901693;29;20039;-68
2022/06/14 04:00:41;;;;;;;13.50;11.13;;;;;;;18.45;100.00;100223.69;4930785;29;20102;-66
2022/06/14 04:03:12;;;;;;;10.95;9.82;;;;;;;18.50;100.00;100229.78;5000651;28;20023;-64
2022/06/14 04:06:15;;;;;;;20.98;10.90;;;;;;;18.46;100.00;100227.19;4990736;28;20050;-68
2022/06/14 04:09:08;;;;;;;14.57;10.82;;;;;;;18.26;100.00;100197.53;4990781;28;20030;-65
2022/06/14 04:12:07;;;;;;;12.43;10.88;;;;;;;18.51;100.00;100228.03;4990667;28;20032;-65
2022/06/14 04:14:36;;;;;;;12.32;11.05;;;;;;;18.53;100.00;100227.19;4989772;28;20142;-67
2022/06/14 04:17:16;;;;;;;12.48;11.23;;;;;;;18.62;100.00;100225.41;4990702;28;20034;-68
2022/06/14 04:20:05;;;;;;;14.20;11.38;;;;;;;18.79;100.00;100239.38;4990227;28;20081;-65
2022/06/14 04:22:50;;;;;;;13.63;11.55;;;;;;;18.87;100.00;100239.38;4990702;28;20483;-68
2022/06/14 04:25:33;;;;;;;17.23;12.32;;;;;;;18.94;100.00;100235.91;4990498;28;20048;-68
2022/06/14 04:28:20;;;;;;;14.25;12.75;;;;;;;18.84;100.00;100208.88;4990307;28;20452;-64
2022/06/14 04:30:58;;;;;;;14.00;12.48;;;;;;;19.03;100.00;100235.88;4990591;28;20113;-68
2022/06/14 04:33:39;;;;;;;15.10;12.98;;;;;;;19.05;100.00;100230.66;4994101;28;20037;-65
2022/06/14 04:36:12;;;;;;;14.68;12.57;;;;;;;19.09;100.00;100240.25;4993954;28;20057;-64
2022/06/14 04:38:56;;;;;;;17.05;12.52;;;;;;;19.08;100.00;100231.50;4998667;28;20070;-65
2022/06/14 04:41:25;;;;;;;17.45;12.63;;;;;;;19.13;100.00;100233.25;4994393;28;20018;-68
2022/06/14 04:43:57;;;;;;;14.43;13.02;;;;;;;19.15;100.00;100229.78;4994781;28;20117;-64
2022/06/14 04:46:37;;;;;;;13.68;11.70;;;;;;;19.33;100.00;100238.44;4994892;28;20038;-68
2022/06/14 04:49:13;;;;;;;15.77;14.10;;;;;;;19.15;100.00;100182.66;4994452;28;20104;-67
2022/06/14 04:51:49;;;;;;;14.73;13.23;;;;;;;19.53;100.00;100239.25;4994799;28;20030;-67
2022/06/14 04:54:21;;;;;;;15.02;13.43;;;;;;;19.66;100.00;100247.06;4994585;28;20111;-68
2022/06/14 04:56:53;;;;;;;18.00;14.40;;;;;;;19.76;100.00;100255.75;4994231;28;20030;-68
2022/06/14 04:59:38;;;;;;;16.55;14.70;;;;;;;19.78;100.00;100249.63;4999191;28;20123;-67
2022/06/14 05:02:19;;;;;;;17.75;13.70;;;;;;;19.62;100.00;100203.44;4997621;28;20049;-66
2022/06/14 05:04:50;;;;;;;14.50;13.00;;;;;;;19.95;100.00;100252.22;4994264;28;20030;-65
2022/06/14 05:07:34;;;;;;;15.65;13.98;;;;;;;20.03;100.00;100260.88;4994052;28;20448;-71
2022/06/14 05:10:07;;;;;;;15.18;13.15;;;;;;;20.16;100.00;100261.69;4994419;28;20031;-65
2022/06/14 05:13:00;;;;;;;13.82;12.45;;;;;;;20.24;100.00;100259.03;4994049;28;20034;-72
2022/06/14 05:15:38;;;;;;;13.80;12.43;;;;;;;20.08;100.00;100242.50;4972265;28;20589;-65
2022/06/14 05:18:10;;;;;;;14.10;12.55;;;;;;;20.06;100.00;100243.41;4972032;28;20097;-70
2022/06/14 05:20:44;;;;;;;15.68;11.95;;;;;;;20.36;100.00;100265.91;4971967;28;20042;-68
2022/06/14 05:23:23;;;;;;;15.40;12.82;;;;;;;20.25;100.00;100236.28;4972204;28;20046;-68
2022/06/14 05:26:16;;;;;;;14.80;12.70;;;;;;;20.47;100.00;100276.34;4972011;28;20545;-67
2022/06/14 05:29:17;;;;;;;13.50;11.93;;;;;;;20.56;100.00;100265.81;4971797;28;20035;-69
2022/06/14 05:32:07;;;;;;;15.60;11.60;;;;;;;20.66;100.00;100262.22;4972141;28;20035;-68
2022/06/14 05:34:52;;;;;;;16.33;11.05;;;;;;;20.76;100.00;100262.16;4971474;28;20426;-65
2022/06/14 05:37:25;;;;;;;16.38;11.18;;;;;;;20.57;100.00;100214.22;4971826;28;20035;-66
2022/06/14 05:39:59;;;;;;;12.60;11.25;;;;;;;20.78;100.00;100234.16;4971639;28;20090;-64
2022/06/14 05:42:34;;;;;;;12.07;10.52;;;;;;;21.05;100.00;100275.03;4971866;28;20054;-68
2022/06/14 05:45:02;;;;;;;12.05;10.55;;;;;;;21.22;100.00;100276.63;4971045;28;20043;-68
2022/06/14 05:47:37;;;;;;;11.75;10.10;;;;;;;21.28;100.00;100276.56;4971416;28;20106;-64
2022/06/14 05:50:08;;;;;;;11.40;10.18;;;;;;;21.32;100.00;100271.25;4970856;28;20035;-70
2022/06/14 05:52:42;;;;;;;11.88;9.55;;;;;;;21.15;100.00;100225.94;4983731;28;20041;-65
2022/06/14 05:55:37;;;;;;;12.60;9.80;;;;;;;21.62;100.00;100281.47;4993246;28;20062;-66
2022/06/14 05:58:25;;;;;;;11.20;9.25;;;;;;;21.69;100.00;100280.50;4924256;29;20043;-69
2022/06/14 06:01:11;;;;;;;12.63;10.18;;;;;;;21.85;100.00;100283.81;4933013;29;20115;-66
2022/06/14 06:03:53;;;;;;;10.95;9.00;;;;;;;21.93;100.00;100284.59;4932708;29;20071;-67
2022/06/14 06:06:30;;;;;;;11.60;10.38;;;;;;;21.87;100.00;100263.66;4932864;29;20047;-64
2022/06/14 06:09:18;;;;;;;11.48;9.25;;;;;;;22.05;100.00;100278.31;4932699;29;20134;-69
2022/06/14 06:11:51;;;;;;;11.98;9.30;;;;;;;22.22;100.00;100282.44;4932823;29;20035;-65
2022/06/14 06:14:30;;;;;;;11.68;9.77;;;;;;;22.25;99.61;100285.06;4932436;29;20028;-67
2022/06/14 06:17:04;;;;;;;13.02;10.05;;;;;;;22.37;97.98;100287.53;4894713;29;20056;-68
2022/06/14 06:19:47;;;;;;;10.95;9.85;;;;;;;22.40;98.18;100281.34;4894721;29;20128;-67
2022/06/14 06:22:24;;;;;;;12.25;9.73;;;;;;;22.50;99.13;100290.84;4894567;29;20149;-66
2022/06/14 06:24:58;;;;;;;10.55;9.32;;;;;;;22.61;96.60;100288.06;4894506;29;20501;-68
2022/06/14 06:27:31;;;;;;;10.02;8.68;;;;;;;22.52;96.32;100249.59;4894527;29;20053;-68
2022/06/14 06:30:04;;;;;;;11.73;9.00;;;;;;;22.84;96.24;100286.81;4894545;29;20028;-65
2022/06/14 06:32:33;;;;;;;10.93;8.75;;;;;;;22.91;96.93;100283.19;4894062;29;20109;-65
2022/06/14 06:35:01;;;;;;;14.00;9.45;;;;;;;22.90;97.92;100269.16;4926890;28;20062;-66
2022/06/14 06:37:51;;;;;;;11.15;9.30;;;;;;;23.10;96.68;100292.50;4970807;28;20078;-64
2022/06/14 06:40:22;;;;;;;;;;;;;;;23.32;95.85;100288.63;4971051;28;20031;-67
2022/06/14 06:43:07;;;;;;;13.02;8.43;;;;;;;23.35;97.33;100289.47;4970428;28;19909;-69
2022/06/14 06:45:38;;;;;;;10.32;9.23;;;;;;;23.34;95.08;100255.22;4970497;28;20521;-65
2022/06/14 06:48:22;;;;;;;10.18;9.15;;;;;;;23.56;96.65;100293.44;4993395;28;20120;-68
2022/06/14 06:51:10;;;;;;;11.10;9.35;;;;;;;23.59;93.82;100292.50;5005609;28;20034;-68
2022/06/14 06:53:42;;;;;;;12.00;8.98;;;;;;;23.52;94.64;100288.25;5004281;28;20492;-65
2022/06/14 06:56:15;;;;;;;11.15;9.07;;;;;;;23.54;94.93;100284.69;4992241;28;20030;-64
2022/06/14 06:58:52;;;;;;;13.45;9.30;;;;;;;23.66;94.61;100288.84;4991735;28;20023;-68
2022/06/14 07:01:44;;;;;;;11.82;9.82;;;;;;;23.82;95.41;100278.84;4992586;28;20030;-70
2022/06/14 07:04:12;;;;;;;14.00;9.45;;;;;;;23.83;95.21;100291.13;4950575;29;20035;-65
2022/06/14 07:06:42;;;;;;;10.13;9.02;;;;;;;23.84;94.74;100274.41;4951306;29;20043;-70
2022/06/14 07:09:28;;;;;;;11.07;9.05;;;;;;;24.01;95.35;100292.56;4950695;29;20047;-69
2022/06/14 07:12:02;;;;;;;12.05;9.77;;;;;;;23.96;96.90;100260.13;4950696;29;20047;-65
2022/06/14 07:14:39;;;;;;;10.45;8.73;;;;;;;24.29;95.24;100286.66;4950600;29;20066;-65
2022/06/14 07:17:14;;;;;;;12.35;8.95;;;;;;;24.37;94.15;100283.84;4950803;29;20061;-65
2022/06/14 07:19:49;;;;;;;9.73;8.70;;;;;;;24.44;91.83;100281.94;4951023;29;20046;-67
2022/06/14 07:22:22;;;;;;;8.52;7.55;;;;;;;24.54;89.07;100286.09;4950834;29;20062;-68
2022/06/14 07:25:09;;;;;;;14.70;13.30;;;;;;;24.53;89.25;100282.56;4950387;29;20032;-68
2022/06/14 07:27:42;;;;;;;13.30;7.97;;;;;;;24.66;90.00;100274.38;4950630;29;20049;-66
2022/06/14 07:30:14;;;;;;;11.48;8.18;;;;;;;24.81;91.89;100283.69;4950347;29;20047;-66
2022/06/14 07:32:47;;;;;;;15.40;14.07;;;;;;;24.89;88.45;100279.09;4950059;29;20056;-65
2022/06/14 07:35:15;;;;;;;74.03;69.07;;;;;;;24.93;88.29;100250.84;4950110;29;20419;-67
2022/06/14 07:37:49;;;;;;;13.07;11.88;;;;;;;25.02;90.24;100283.16;4934111;29;20031;-64
2022/06/14 07:40:18;;;;;;;14.40;8.88;;;;;;;25.17;91.89;100284.53;4958838;28;20166;-65
2022/06/14 07:42:46;;;;;;;12.52;9.32;;;;;;;25.19;92.39;100281.84;4991648;28;20559;-64
2022/06/14 07:45:18;;;;;;;11.90;9.50;;;;;;;25.23;90.28;100280.00;4991021;28;20026;-69
2022/06/14 07:48:19;;;;;;;13.73;12.25;;;;;;;25.41;89.37;100283.94;5000419;28;20053;-64
2022/06/14 07:51:01;;;;;;;14.48;13.15;;;;;;;25.47;94.11;100281.09;4991241;28;20038;-70
2022/06/14 07:53:29;;;;;;;308.83;284.55;;;;;;;25.54;86.08;100289.75;4991055;28;20034;-67
2022/06/14 07:56:20;;;;;;;473.48;437.13;;;;;;;25.57;85.05;100287.91;4991206;28;20031;-64
2022/06/14 07:59:17;;;;;;;293.25;275.00;;;;;;;25.63;83.04;100293.00;4969294;28;20046;-64
2022/06/14 08:01:51;;;;;;;379.58;353.35;;;;;;;25.65;85.62;100292.97;4911652;29;20820;-71
2022/06/14 08:04:26;;;;;;;365.25;340.05;;;;;;;25.75;84.45;100296.22;4911823;29;20447;-65
2022/06/14 08:07:05;;;;;;;376.70;350.25;;;;;;;25.86;83.08;100293.22;4911619;29;20474;-69
2022/06/14 08:09:54;;;;;;;372.58;346.33;;;;;;;26.05;83.32;100291.78;4911703;29;20028;-68
2022/06/14 08:12:38;;;;;;;276.70;258.95;;;;;;;26.07;83.34;100289.09;4911296;29;20483;-68
2022/06/14 08:15:26;;;;;;;207.95;196.43;;;;;;;26.20;80.74;100274.59;4911570;29;20060;-68
2022/06/14 08:18:01;;;;;;;463.48;431.45;;;;;;;26.30;85.14;100283.97;4873855;29;20548;-68
2022/06/14 08:20:32;;;;;;;383.67;358.23;;;;;;;26.39;84.71;100281.97;4874161;29;20041;-66
2022/06/14 08:23:10;;;;;;;379.60;354.38;;;;;;;26.31;83.80;100259.25;4873847;29;20048;-66
2022/06/14 08:25:42;;;;;;;10.85;6.90;;;;;;;26.53;80.42;100290.34;4842927;29;20063;-69
2022/06/14 08:28:15;;;;;;;9.70;6.70;;;;;;;26.54;79.07;100289.41;4873904;29;20048;-65
2022/06/14 08:31:04;;;;;;;7.13;6.10;;;;;;;26.52;81.29;100282.41;4873877;29;20112;-69
2022/06/14 08:33:30;;;;;;;7.45;5.85;;;;;;;26.72;78.63;100279.16;4836579;29;20044;-66
2022/06/14 08:36:00;;;;;;;8.40;6.38;;;;;;;26.76;79.28;100276.34;4826136;29;20489;-64
2022/06/14 08:38:32;;;;;;;9.50;6.22;;;;;;;26.75;80.08;100281.72;4872971;29;20156;-65
2022/06/14 08:41:03;;;;;;;9.27;6.07;;;;;;;26.96;79.89;100283.63;4892794;29;20036;-68
2022/06/14 08:43:42;;;;;;;7.05;6.10;;;;;;;27.01;79.72;100280.81;4892745;29;20040;-66
2022/06/14 08:46:27;;;;;;;6.95;6.22;;;;;;;27.01;76.82;100286.13;4892232;29;20440;-66
2022/06/14 08:49:08;;;;;;;8.15;5.78;;;;;;;27.04;76.99;100285.16;4892481;29;20033;-65
2022/06/14 08:52:04;;;;;;;7.55;6.13;;;;;;;27.05;76.19;100286.88;4892523;29;20040;-72
2022/06/14 08:54:45;;;;;;;9.35;6.32;;;;;;;27.19;81.00;100283.75;4903799;29;20055;-65
2022/06/14 08:57:11;;;;;;;7.55;5.90;;;;;;;27.24;76.71;100276.50;4946544;29;20061;-64
2022/06/14 09:00:02;;;;;;;6.75;5.85;;;;;;;27.36;77.56;100275.22;4950082;29;20035;-65
2022/06/14 09:02:47;;;;;;;7.82;5.05;;;;;;;27.24;73.92;100250.88;4949789;29;20032;-68
2022/06/14 09:05:18;;;;;;;7.70;6.07;;;;;;;27.32;78.83;100257.69;4949358;29;20046;-67
2022/06/14 09:08:08;;;;;;;9.13;5.75;;;;;;;27.55;76.32;100280.72;4949753;29;20073;-69
2022/06/14 09:11:01;;;;;;;9.57;5.93;;;;;;;27.52;78.43;100255.19;4969184;28;20038;-64
2022/06/14 09:13:27;;;;;;;8.07;6.03;;;;;;;27.54;76.47;100236.56;4990815;28;20034;-69
2022/06/14 09:16:21;;;;;;;8.43;6.00;;;;;;;27.83;79.03;100275.25;4990852;28;20109;-69
2022/06/14 09:19:00;;;;;;;20.48;6.13;;;;;;;27.91;77.04;100275.84;4949668;29;20054;-69
2022/06/14 09:21:31;;;;;;;9.57;5.90;;;;;;;28.07;74.55;100265.50;4949816;28;20042;-72
2022/06/14 09:24:14;;;;;;;8.90;6.18;;;;;;;28.28;74.46;100262.94;4953287;29;21203;-67
2022/06/14 09:26:43;;;;;;;6.97;5.70;;;;;;;28.25;71.30;100261.28;4953206;29;20035;-65
2022/06/14 09:29:11;;;;;;;6.82;5.35;;;;;;;28.30;71.78;100246.94;4953168;29;20078;-69
2022/06/14 09:32:13;;;;;;;8.90;6.03;;;;;;;28.50;76.71;100254.97;4953251;29;20035;-66
2022/06/14 09:34:51;;;;;;;8.15;5.35;;;;;;;28.60;73.04;100249.25;4936547;29;20055;-66
2022/06/14 09:37:35;;;;;;;7.30;5.97;;;;;;;28.64;72.81;100245.56;4952962;29;20039;-68
2022/06/14 09:40:10;;;;;;;6.78;5.90;;;;;;;28.25;71.52;100224.09;4953044;29;20035;-65
2022/06/14 09:42:54;;;;;;;6.78;5.82;;;;;;;28.54;73.51;100240.63;4952896;29;20122;-71
2022/06/14 09:45:28;;;;;;;8.45;6.15;;;;;;;28.67;69.31;100230.38;4953066;29;20457;-68
2022/06/14 09:48:05;;;;;;;7.00;5.20;;;;;;;28.63;69.96;100219.94;4952717;29;20039;-65
2022/06/14 09:50:58;;;;;;;7.03;5.40;;;;;;;28.60;69.61;100220.03;4952791;29;20043;-71
2022/06/14 09:53:44;;;;;;;9.10;5.53;;;;;;;28.86;67.73;100218.97;4952634;29;20026;-71
2022/06/14 09:56:47;;;;;;;7.00;5.30;;;;;;;29.11;68.72;100215.22;4981207;28;20468;-67
2022/06/14 09:59:25;;;;;;;8.93;5.80;;;;;;;29.14;70.34;100192.03;4993583;28;20031;-64
2022/06/14 10:02:09;;;;;;;9.88;5.78;;;;;;;29.33;71.02;100209.84;5003930;28;20026;-68
2022/06/14 10:04:55;;;;;;;7.28;5.80;;;;;;;29.47;68.58;100198.56;5002243;28;20117;-69
2022/06/14 10:07:28;;;;;;;8.90;5.82;;;;;;;29.69;71.84;100198.44;5002910;28;20065;-68
2022/06/14 10:10:29;;;;;;;10.18;6.13;;;;;;;29.99;72.46;100203.25;5007692;28;20026;-70
2022/06/14 10:13:12;;;;;;;8.27;5.47;;;;;;;30.18;68.02;100196.09;4960677;28;20514;-71
2022/06/14 10:15:40;;;;;;;7.30;5.70;;;;;;;30.22;64.32;100199.47;4962226;28;20026;-69
2022/06/14 10:18:26;;;;;;;8.63;5.50;;;;;;;30.33;61.90;100193.59;4957536;28;20055;-65
2022/06/14 10:21:14;;;;;;;6.72;5.47;;;;;;;30.16;64.58;100197.97;4952050;29;20043;-71
2022/06/14 10:24:21;;;;;;;9.10;5.40;;;;;;;30.21;66.08;100183.56;4951950;29;20114;-66
2022/06/14 10:30:01;;;;;;;5.83;5.20;;;;;;;30.37;63.13;100157.03;4913958;29;20043;-66
2022/06/14 10:32:29;;;;;;;7.00;5.25;;;;;;;30.30;62.59;100132.50;4917859;29;20032;-69
2022/06/14 10:35:17;;;;;;;6.50;5.25;;;;;;;30.93;67.81;100168.38;4931869;29;20483;-70
2022/06/14 10:37:55;;;;;;;6.75;5.60;;;;;;;30.95;60.51;100167.34;4933651;29;20051;-67
2022/06/14 10:40:38;;;;;;;7.85;5.63;;;;;;;31.16;63.07;100161.00;4932776;29;20039;-68
2022/06/14 10:43:12;;;;;;;9.48;6.00;;;;;;;30.87;54.47;100166.03;4932562;29;20055;-73
2022/06/14 10:45:43;;;;;;;8.55;5.20;;;;;;;30.63;56.12;100169.91;4932716;29;20056;-72
2022/06/14 10:48:23;;;;;;;6.32;5.40;;;;;;;30.31;59.98;100144.91;4932519;29;20125;-69
2022/06/14 10:51:05;;;;;;;6.95;5.43;;;;;;;29.92;55.26;100152.13;4968758;28;20038;-71
2022/06/14 10:53:55;;;;;;;10.23;5.35;;;;;;;29.82;55.63;100157.00;4971397;28;20035;-67
2022/06/14 10:56:42;;;;;;;8.27;5.32;;;;;;;29.78;59.32;100149.25;4972370;28;20035;-70
2022/06/14 10:59:13;;;;;;;7.35;5.28;;;;;;;29.59;61.30;100149.28;5012333;28;20104;-67
2022/06/14 11:02:10;;;;;;;8.52;5.70;;;;;;;29.21;59.85;100156.28;5012164;28;20038;-70
2022/06/14 11:04:48;;;;;;;7.75;4.53;;;;;;;28.96;60.17;100156.53;5012385;28;20056;-73
2022/06/14 11:07:34;;;;;;;10.15;5.80;;;;;;;28.94;63.23;100149.56;5012414;28;20034;-68
2022/06/14 11:10:00;;;;;;;8.63;5.95;;;;;;;28.89;62.37;100158.56;5011996;28;20069;-69
2022/06/14 11:12:34;;;;;;;6.82;5.15;;;;;;;28.71;59.41;100154.06;5012575;28;20404;-69
2022/06/14 11:15:08;;;;;;;8.65;5.55;;;;;;;28.93;59.65;100166.44;5012073;28;20029;-70
2022/06/14 11:17:59;;;;;;;5.85;5.25;;;;;;;29.00;59.46;100179.38;5012257;28;20034;-71
2022/06/14 11:20:50;;;;;;;9.90;5.40;;;;;;;28.96;58.88;100206.13;5011973;28;20083;-70
2022/06/14 11:23:27;;;;;;;11.98;4.85;;;;;;;27.81;61.62;100232.00;5012027;28;20034;-70
2022/06/14 11:26:06;;;;;;;8.18;5.22;;;;;;;27.73;62.32;100260.63;5011801;28;20036;-67
2022/06/14 11:28:52;;;;;;;6.57;5.03;;;;;;;27.67;60.75;100263.50;5011807;28;20030;-70
2022/06/14 11:31:42;;;;;;;23.17;6.60;;;;;;;27.43;70.29;100295.31;5011856;28;20061;-67
2022/06/14 11:34:07;;;;;;;24.02;9.70;;;;;;;26.70;77.69;100344.53;5011693;28;20096;-68
2022/06/14 11:37:09;;;;;;;100.82;12.35;;;;;;;23.37;86.78;100265.72;5011840;28;20500;-68
2022/06/14 11:39:52;;;;;;;22.73;5.65;;;;;;;21.37;100.00;100462.03;5011768;28;20046;-67
2022/06/14 11:42:30;;;;;;;12.68;6.80;;;;;;;20.11;100.00;100449.56;5011832;28;20022;-69
2022/06/14 11:45:26;;;;;;;142.52;127.88;;;;;;;19.64;100.00;100324.75;5011381;28;20053;-74
2022/06/14 11:48:07;;;;;;;1.65;0.22;;;;;;;18.98;100.00;100446.03;5011730;28;20040;-73
2022/06/14 11:50:47;;;;;;;0.00;0.00;;;;;;;19.04;100.00;100433.88;5011597;28;20104;-74
2022/06/14 11:53:16;;;;;;;0.00;0.00;;;;;;;19.08;100.00;100375.44;5011617;28;20041;-73
2022/06/14 11:56:05;;;;;;;8.25;5.10;;;;;;;18.91;100.00;100351.84;5011334;28;20451;-70
2022/06/14 11:58:58;;;;;;;9.82;5.85;;;;;;;18.97;100.00;100352.75;5011498;28;20034;-70
2022/06/14 12:01:45;;;;;;;7.78;4.82;;;;;;;19.37;100.00;100350.97;5011366;28;20492;-66
2022/06/14 12:04:24;;;;;;;10.55;6.20;;;;;;;19.75;100.00;100364.91;5011364;28;20393;-73
2022/06/14 12:06:58;;;;;;;15.73;7.97;;;;;;;19.77;100.00;100347.41;5011377;28;20026;-70
2022/06/14 12:09:49;;;;;;;11.57;7.72;;;;;;;19.84;100.00;100374.50;4987830;28;20058;-75
2022/06/14 12:12:29;;;;;;;10.20;7.57;;;;;;;19.97;100.00;100367.47;4991905;28;20069;-68
2022/06/14 12:15:09;;;;;;;9.82;7.95;;;;;;;19.84;100.00;100364.03;4991645;28;20401;-70